Time;durP1;ratioP1;P1;durP2;ratioP2;P2;SDS_P1;SDS_P2;PMS_P1;PMS_P2;Temp;Humidity;BMP_temperature;BMP_pressure;BME280_temperature;BME280_humidity;BME280_pressure;Samples;Min_cycle;Max_cycle;Signal;HPM_P1;HPM_P2
2022/03/12 00:01:21;;;;;;;24.17;8.88;;;;;;;-149.78;100.00;50338.44;4807658;29;20058;-68
2022/03/12 00:03:47;;;;;;;24.42;8.95;;;;;;;-149.78;100.00;50336.50;4807419;29;20134;-68
2022/03/12 00:06:17;;;;;;;22.75;9.32;;;;;;;-149.78;100.00;50342.38;4823637;29;20051;-68
2022/03/12 00:08:44;;;;;;;23.30;8.95;;;;;;;-149.78;100.00;50354.09;4807180;29;20034;-68
2022/03/12 00:11:13;;;;;;;25.88;10.10;;;;;;;-149.78;100.00;50344.31;4806370;29;20066;-68
2022/03/12 00:13:39;;;;;;;23.42;10.00;;;;;;;-149.78;100.00;50358.00;4841740;29;20034;-68
2022/03/12 00:16:13;;;;;;;27.10;9.57;;;;;;;-149.78;100.00;50338.44;4841628;29;20042;-68
2022/03/12 00:18:42;;;;;;;28.15;10.20;;;;;;;-149.78;100.00;50330.63;4841830;29;20383;-68
2022/03/12 00:21:11;;;;;;;23.02;9.95;;;;;;;-149.78;100.00;50342.38;4824496;29;20583;-68
2022/03/12 00:23:37;;;;;;;29.15;9.90;;;;;;;-149.78;100.00;50338.44;4822842;29;20042;-68
2022/03/12 00:26:03;;;;;;;23.05;9.95;;;;;;;-149.78;100.00;50311.06;4805100;29;20053;-68
2022/03/12 00:28:31;;;;;;;25.30;9.60;;;;;;;-149.78;100.00;50369.75;4823108;29;20061;-68
2022/03/12 00:30:56;;;;;;;23.38;9.02;;;;;;;-149.78;100.00;50346.28;4823442;29;20117;-68
2022/03/12 00:33:24;;;;;;;25.02;8.38;;;;;;;-149.78;100.00;50314.97;4823400;29;20418;-68
2022/03/12 00:35:53;;;;;;;20.50;8.52;;;;;;;-149.78;100.00;50356.06;4792249;29;20038;-68
2022/03/12 00:38:21;;;;;;;21.75;8.93;;;;;;;-149.78;100.00;50346.28;4823366;29;20038;-68
2022/03/12 00:40:48;;;;;;;23.80;9.48;;;;;;;-149.78;100.00;50350.19;4823337;29;20671;-68
2022/03/12 00:43:14;;;;;;;25.52;9.00;;;;;;;-149.78;100.00;50350.19;4823438;29;20047;-68
2022/03/12 00:45:40;;;;;;;24.55;9.10;;;;;;;-149.78;100.00;50342.38;4823361;29;20046;-68
2022/03/12 00:48:06;;;;;;;27.73;9.27;;;;;;;-149.78;100.00;50361.91;4823426;29;20090;-68
2022/03/12 00:50:33;;;;;;;23.15;9.50;;;;;;;-149.78;100.00;50313.03;4823390;29;20050;-68
2022/03/12 00:52:59;;;;;;;27.33;8.90;;;;;;;-149.78;100.00;50371.69;4823388;29;20065;-68
2022/03/12 00:55:25;;;;;;;22.50;8.77;;;;;;;-149.78;100.00;50326.72;4791760;29;20042;-68
2022/03/12 00:57:51;;;;;;;25.17;8.75;;;;;;;-149.78;100.00;50338.44;4823183;29;20410;-68
2022/03/12 01:00:21;;;;;;;22.25;8.40;;;;;;;-149.78;100.00;50369.75;4823147;29;20040;-68
2022/03/12 01:02:48;;;;;;;20.15;8.52;;;;;;;-149.78;100.00;50338.44;4823148;29;20038;-68
2022/03/12 01:05:16;;;;;;;19.00;8.38;;;;;;;-149.78;100.00;50338.44;4806873;29;20048;-68
2022/03/12 01:07:42;;;;;;;22.85;7.90;;;;;;;-149.78;100.00;50367.78;4823079;29;20042;-68
2022/03/12 01:10:08;;;;;;;21.20;8.57;;;;;;;-149.78;100.00;50350.19;4829432;29;20053;-68
2022/03/12 01:12:35;;;;;;;25.33;9.25;;;;;;;-149.78;100.00;50365.84;4830963;29;20046;-68
2022/03/12 01:15:05;;;;;;;22.00;9.50;;;;;;;-149.78;100.00;50359.97;4823167;29;20439;-68
2022/03/12 01:17:33;;;;;;;24.00;8.80;;;;;;;-149.78;100.00;50361.91;4822983;29;20505;-68
2022/03/12 01:20:00;;;;;;;20.63;8.68;;;;;;;-149.78;100.00;50361.91;4806942;29;20072;-68
2022/03/12 01:22:29;;;;;;;25.83;9.93;;;;;;;-149.78;100.00;50350.19;4806757;29;20119;-68
2022/03/12 01:24:55;;;;;;;18.45;9.23;;;;;;;-149.78;100.00;50342.38;4823021;29;20077;-68
2022/03/12 01:27:22;;;;;;;28.30;9.23;;;;;;;-149.78;100.00;50338.44;4822811;29;20042;-68
2022/03/12 01:29:48;;;;;;;21.85;9.77;;;;;;;-149.78;100.00;50352.16;4827532;29;20193;-68
2022/03/12 01:32:13;;;;;;;23.30;9.13;;;;;;;-149.78;100.00;50350.19;4840913;29;20137;-68
2022/03/12 01:34:39;;;;;;;24.17;9.70;;;;;;;-149.78;100.00;50338.44;4841467;29;20060;-68
2022/03/12 01:37:05;;;;;;;22.90;9.00;;;;;;;-149.78;100.00;50334.53;4844639;29;20038;-68
2022/03/12 01:39:31;;;;;;;22.92;9.25;;;;;;;-149.78;100.00;50373.66;4820087;29;20045;-68
2022/03/12 01:41:59;;;;;;;20.67;8.80;;;;;;;-149.78;100.00;50350.19;4826177;29;20084;-68
2022/03/12 01:44:25;;;;;;;23.88;9.02;;;;;;;-149.78;100.00;50358.00;4826081;29;20468;-68
2022/03/12 01:46:50;;;;;;;21.20;8.60;;;;;;;-149.78;100.00;50330.63;4826075;29;20125;-68
2022/03/12 01:49:19;;;;;;;20.40;8.40;;;;;;;-149.78;100.00;50369.75;4824773;29;20034;-68
2022/03/12 01:51:47;;;;;;;17.95;8.40;;;;;;;-149.78;100.00;50352.16;4826084;29;20030;-68
2022/03/12 01:54:18;;;;;;;22.10;8.20;;;;;;;-149.78;100.00;50373.66;4825895;29;20050;-68
2022/03/12 01:56:45;;;;;;;23.58;8.98;;;;;;;-149.78;100.00;50367.78;4809845;29;20517;-68
2022/03/12 01:59:11;;;;;;;26.65;8.48;;;;;;;-149.78;100.00;50350.19;4825927;29;20038;-68
2022/03/12 02:01:37;;;;;;;23.42;9.43;;;;;;;-149.78;100.00;50358.00;4794714;29;20388;-68
2022/03/12 02:04:07;;;;;;;20.88;8.50;;;;;;;-149.78;100.00;50348.22;4825965;29;20205;-68
2022/03/12 02:06:34;;;;;;;19.48;8.27;;;;;;;-149.78;100.00;50348.22;4809554;29;20491;-68
2022/03/12 02:09:01;;;;;;;19.00;8.32;;;;;;;-149.78;100.00;50322.81;4779661;29;20049;-68
2022/03/12 02:11:51;;;;;;;18.25;9.05;;;;;;;-149.78;100.00;50350.19;4812159;29;20502;-68
2022/03/12 02:14:27;;;;;;;21.45;8.25;;;;;;;-149.78;100.00;50365.84;4825849;29;20121;-68
2022/03/12 02:17:03;;;;;;;22.70;9.30;;;;;;;-149.78;100.00;50348.22;4809683;29;20581;-68
2022/03/12 02:19:32;;;;;;;20.50;8.43;;;;;;;-149.78;100.00;50361.91;4825423;29;20045;-68
2022/03/12 02:22:01;;;;;;;22.58;8.38;;;;;;;-149.78;100.00;50346.28;4824302;29;20133;-68
2022/03/12 02:24:29;;;;;;;19.63;7.95;;;;;;;-149.78;100.00;50334.53;4825525;29;20094;-68
2022/03/12 02:26:57;;;;;;;17.45;7.63;;;;;;;-149.78;100.00;50361.91;4825454;29;20069;-68
2022/03/12 02:29:24;;;;;;;17.13;7.82;;;;;;;-149.78;100.00;50387.34;4824095;29;20087;-68
2022/03/12 02:31:56;;;;;;;18.50;7.88;;;;;;;-149.78;100.00;50358.00;4824703;29;20368;-68
2022/03/12 02:34:30;;;;;;;21.35;8.00;;;;;;;-149.78;100.00;50358.00;4825352;29;20613;-68
2022/03/12 02:36:58;;;;;;;19.30;6.70;;;;;;;-149.78;100.00;50330.63;4824271;29;20042;-68
2022/03/12 02:39:27;;;;;;;15.50;7.00;;;;;;;-149.78;100.00;50385.38;4809131;29;20046;-68
2022/03/12 02:41:54;;;;;;;19.13;7.75;;;;;;;-149.78;100.00;50358.00;4809112;29;20069;-68
2022/03/12 02:44:24;;;;;;;19.55;7.72;;;;;;;-149.78;100.00;50377.56;4825422;29;20038;-68
2022/03/12 02:47:32;;;;;;;21.30;6.65;;;;;;;-149.78;100.00;50350.19;4808889;29;20064;-68
2022/03/12 02:49:59;;;;;;;17.42;6.25;;;;;;;-149.78;100.00;50348.22;4751322;30;20143;-68
2022/03/12 02:52:31;;;;;;;13.90;6.07;;;;;;;-149.78;100.00;50361.91;4736693;30;20051;-68
2022/03/12 02:54:59;;;;;;;13.68;6.07;;;;;;;-149.78;100.00;50373.66;4791603;29;20125;-68
2022/03/12 02:57:26;;;;;;;20.67;6.38;;;;;;;-149.78;100.00;50361.91;4823998;29;20038;-68
2022/03/12 02:59:54;;;;;;;14.57;6.88;;;;;;;-149.78;100.00;50365.84;4809058;29;20042;-68
2022/03/12 03:02:28;;;;;;;17.20;6.00;;;;;;;-149.78;100.00;50352.16;4825185;29;20077;-68
2022/03/12 03:04:54;;;;;;;14.88;5.68;;;;;;;-149.78;100.00;50381.47;4824997;29;20069;-68
2022/03/12 03:07:22;;;;;;;10.40;6.00;;;;;;;-149.78;100.00;50361.91;4809091;29;20066;-68
2022/03/12 03:09:48;;;;;;;14.60;5.43;;;;;;;-149.78;100.00;50311.06;4828823;29;20486;-68
2022/03/12 03:12:14;;;;;;;13.13;6.00;;;;;;;-149.78;100.00;50346.28;4826974;29;20040;-68
2022/03/12 03:14:44;;;;;;;16.15;5.93;;;;;;;-149.78;100.00;50338.44;4811706;29;20468;-68
2022/03/12 03:17:12;;;;;;;18.40;6.03;;;;;;;-149.78;100.00;50375.63;4842113;29;20049;-68
2022/03/12 03:19:39;;;;;;;15.98;5.57;;;;;;;-149.78;100.00;50336.50;4837235;29;20038;-68
2022/03/12 03:22:06;;;;;;;16.10;5.72;;;;;;;-149.78;100.00;50326.72;4823481;29;20046;-68
2022/03/12 03:24:32;;;;;;;13.93;5.65;;;;;;;-149.78;100.00;50346.28;4808547;29;20043;-68
2022/03/12 03:27:00;;;;;;;13.32;5.53;;;;;;;-149.78;100.00;50385.38;4808529;29;20046;-67
2022/03/12 03:29:29;;;;;;;12.77;5.00;;;;;;;-149.78;100.00;50350.19;4824587;29;20087;-68
2022/03/12 03:31:56;;;;;;;14.75;4.95;;;;;;;-149.78;100.00;50358.00;4824604;29;20027;-68
2022/03/12 03:34:23;;;;;;;14.68;4.88;;;;;;;-149.78;100.00;50358.00;4824550;29;20150;-68
2022/03/12 03:36:50;;;;;;;14.75;4.72;;;;;;;-149.78;100.00;50404.94;4792972;29;20397;-68
2022/03/12 03:39:16;;;;;;;17.35;4.60;;;;;;;-149.78;100.00;50391.25;4824042;29;20045;-68
2022/03/12 03:41:43;;;;;;;11.55;5.05;;;;;;;-149.78;100.00;50377.56;4823965;29;20043;-68
2022/03/12 03:44:10;;;;;;;12.95;3.88;;;;;;;-149.78;100.00;50385.38;4822795;29;20061;-68
2022/03/12 03:46:36;;;;;;;13.68;3.60;;;;;;;-149.78;100.00;50365.84;4807418;29;20053;-68
2022/03/12 03:49:04;;;;;;;8.13;3.33;;;;;;;-149.78;100.00;50354.09;4791257;29;20043;-68
2022/03/12 03:51:30;;;;;;;9.60;3.33;;;;;;;-149.78;100.00;50356.06;4824266;29;20360;-68
2022/03/12 03:53:56;;;;;;;13.68;3.08;;;;;;;-149.78;100.00;50377.56;4837322;29;20042;-68
2022/03/12 03:56:22;;;;;;;12.25;3.42;;;;;;;-149.78;100.00;50365.84;4825522;29;20117;-68
2022/03/12 03:58:49;;;;;;;6.65;2.70;;;;;;;-149.78;100.00;50334.53;4826515;29;20026;-68
2022/03/12 04:01:17;;;;;;;8.20;3.28;;;;;;;-149.78;100.00;50365.84;4842270;29;20041;-68
2022/03/12 04:03:51;;;;;;;7.80;2.67;;;;;;;-149.78;100.00;50377.56;4842244;29;20041;-68
2022/03/12 04:06:22;;;;;;;5.00;2.67;;;;;;;-149.78;100.00;50401.03;4842050;29;20045;-68
2022/03/12 04:08:48;;;;;;;8.70;2.85;;;;;;;-149.78;100.00;50377.56;4828208;29;20042;-68
2022/03/12 04:11:25;;;;;;;4.35;2.22;;;;;;;-149.78;100.00;50361.91;4837167;29;20033;-68
2022/03/12 04:13:53;;;;;;;6.50;2.70;;;;;;;-149.78;100.00;50365.84;4804465;29;20053;-68
2022/03/12 04:16:20;;;;;;;9.02;2.58;;;;;;;-149.78;100.00;50356.06;4823452;29;20038;-68
2022/03/12 04:18:48;;;;;;;12.48;2.83;;;;;;;-149.78;100.00;50365.84;4823634;29;20046;-68
2022/03/12 04:21:15;;;;;;;9.65;2.20;;;;;;;-149.78;100.00;50356.06;4806609;29;20047;-68
2022/03/12 04:23:42;;;;;;;10.30;3.35;;;;;;;-149.78;100.00;50412.78;4807188;29;20149;-68
2022/03/12 04:26:09;;;;;;;7.72;2.65;;;;;;;-149.78;100.00;50377.56;4823330;29;20049;-68
2022/03/12 04:28:36;;;;;;;10.50;2.92;;;;;;;-149.78;100.00;50404.94;4823644;29;20084;-68
2022/03/12 04:31:04;;;;;;;13.30;2.85;;;;;;;-149.78;100.00;50385.38;4807011;29;20481;-67
2022/03/12 04:33:31;;;;;;;8.70;2.50;;;;;;;-149.78;100.00;50401.03;4823495;29;20147;-68
2022/03/12 04:35:57;;;;;;;11.13;2.97;;;;;;;-149.78;100.00;50359.97;4823282;29;20410;-68
2022/03/12 04:38:25;;;;;;;11.80;2.30;;;;;;;-149.78;100.00;50365.84;4806869;29;20042;-68
2022/03/12 04:40:51;;;;;;;11.00;2.47;;;;;;;-149.78;100.00;50369.75;4822005;29;20139;-68
2022/03/12 04:43:17;;;;;;;8.48;2.58;;;;;;;-149.78;100.00;50367.78;4823216;29;20045;-68
2022/03/12 04:45:45;;;;;;;12.98;2.55;;;;;;;-149.78;100.00;50377.56;4822261;29;20035;-67
2022/03/12 04:48:19;;;;;;;10.80;2.42;;;;;;;-149.78;100.00;50371.69;4836355;29;20037;-68
2022/03/12 04:50:45;;;;;;;5.70;2.40;;;;;;;-149.78;100.00;50375.63;4841174;29;20038;-68
2022/03/12 04:53:11;;;;;;;12.18;3.00;;;;;;;-149.78;100.00;50330.63;4824941;29;20034;-68
2022/03/12 04:55:37;;;;;;;7.68;2.55;;;;;;;-149.78;100.00;50379.53;4825030;29;20169;-68
2022/03/12 04:58:04;;;;;;;9.57;2.53;;;;;;;-149.78;100.00;50346.28;4841562;29;20730;-68
2022/03/12 05:00:31;;;;;;;9.82;2.85;;;;;;;-149.78;100.00;50404.94;4823732;29;20146;-68
2022/03/12 05:03:08;;;;;;;5.85;2.65;;;;;;;-149.78;100.00;50326.72;4823356;29;20394;-68
2022/03/12 05:05:40;;;;;;;4.25;2.30;;;;;;;-149.78;100.00;50401.03;4806770;29;20058;-68
2022/03/12 05:08:09;;;;;;;7.63;2.20;;;;;;;-149.78;100.00;50385.38;4823405;29;20114;-68
2022/03/12 05:10:34;;;;;;;6.35;2.05;;;;;;;-149.78;100.00;50354.09;4822232;29;20042;-68
2022/03/12 05:13:00;;;;;;;8.15;2.10;;;;;;;-149.78;100.00;50367.78;4823218;29;20042;-68
2022/03/12 05:15:36;;;;;;;7.78;2.50;;;;;;;-149.78;100.00;50375.63;4823309;29;20094;-68
2022/03/12 05:18:03;;;;;;;7.97;2.10;;;;;;;-149.78;100.00;50385.38;4792632;29;20046;-68
2022/03/12 05:20:29;;;;;;;6.53;1.95;;;;;;;-149.78;100.00;50385.38;4822870;29;20051;-68
2022/03/12 05:22:55;;;;;;;5.43;2.00;;;;;;;-149.78;100.00;50373.66;4806847;29;20046;-68
2022/03/12 05:25:21;;;;;;;4.28;2.03;;;;;;;-149.78;100.00;50371.69;4806798;29;20102;-68
2022/03/12 05:27:52;;;;;;;6.10;1.90;;;;;;;-149.78;100.00;50346.28;4823148;29;20081;-68
2022/03/12 05:30:18;;;;;;;5.85;2.20;;;;;;;-149.78;100.00;50393.22;4806610;29;20046;-68
2022/03/12 05:32:44;;;;;;;7.75;2.38;;;;;;;-149.78;100.00;50369.75;4822820;29;20054;-68
2022/03/12 05:35:11;;;;;;;4.53;2.00;;;;;;;-149.78;100.00;50361.91;4821781;29;20046;-68
2022/03/12 05:37:38;;;;;;;7.47;2.20;;;;;;;-149.78;100.00;50367.78;4822918;29;20368;-68
2022/03/12 05:40:07;;;;;;;3.30;2.03;;;;;;;-149.78;100.00;50377.56;4822776;29;20042;-68
2022/03/12 05:42:34;;;;;;;4.50;2.13;;;;;;;-149.78;100.00;50369.75;4806262;29;20407;-68
2022/03/12 05:45:09;;;;;;;5.97;2.17;;;;;;;-149.78;100.00;50350.19;4821586;29;20050;-68
2022/03/12 05:47:41;;;;;;;7.07;2.10;;;;;;;-149.78;100.00;50375.63;4806389;29;20102;-68
2022/03/12 05:50:13;;;;;;;12.52;3.08;;;;;;;-149.78;100.00;50393.22;4822491;29;20129;-68
2022/03/12 05:52:51;;;;;;;11.20;2.35;;;;;;;-149.78;100.00;50367.78;4796789;29;20031;-68
2022/03/12 05:55:23;;;;;;;7.30;3.03;;;;;;;-149.78;100.00;50383.44;4822758;29;20043;-68
2022/03/12 05:57:49;;;;;;;6.40;2.20;;;;;;;-149.78;100.00;50377.56;4822665;29;20035;-68
2022/03/12 06:00:16;;;;;;;8.40;1.90;;;;;;;-149.78;100.00;50393.22;4806412;29;20065;-68
2022/03/12 06:02:51;;;;;;;4.10;1.70;;;;;;;-149.78;100.00;50352.16;4822750;29;20042;-68
2022/03/12 06:05:21;;;;;;;4.55;2.15;;;;;;;-149.78;100.00;50348.22;4822689;29;20046;-68
2022/03/12 06:07:49;;;;;;;14.88;3.08;;;;;;;-149.78;100.00;50361.91;4822402;29;20049;-68
2022/03/12 06:10:21;;;;;;;6.10;2.05;;;;;;;-149.78;100.00;50412.78;4822647;29;20030;-68
2022/03/12 06:12:48;;;;;;;7.65;2.22;;;;;;;-149.78;100.00;50397.13;4821501;29;20030;-68
2022/03/12 06:15:17;;;;;;;10.07;2.67;;;;;;;-149.78;100.00;50404.94;4806184;29;20107;-68
2022/03/12 06:17:44;;;;;;;7.95;2.50;;;;;;;-149.78;100.00;50404.94;4803168;29;20484;-68
2022/03/12 06:20:11;;;;;;;7.47;2.35;;;;;;;-149.78;100.00;50365.84;4818255;29;20040;-68
2022/03/12 06:22:37;;;;;;;5.63;2.55;;;;;;;-149.78;100.00;50408.84;4825040;29;20043;-68
2022/03/12 06:25:08;;;;;;;9.38;2.47;;;;;;;-149.78;100.00;50369.75;4825511;29;20121;-68
2022/03/12 06:27:34;;;;;;;9.07;2.00;;;;;;;-149.78;100.00;50385.38;4825435;29;20070;-68
2022/03/12 06:30:02;;;;;;;4.35;2.10;;;;;;;-149.78;100.00;50381.47;4808995;29;20049;-68
2022/03/12 06:32:31;;;;;;;3.65;2.05;;;;;;;-149.78;100.00;50389.31;4825473;29;20061;-68
2022/03/12 06:34:58;;;;;;;1.92;1.60;;;;;;;-149.78;100.00;50436.25;4825389;29;20042;-68
2022/03/12 06:37:25;;;;;;;2.08;1.48;;;;;;;-149.78;100.00;50363.88;4809280;29;20066;-68
2022/03/12 06:39:50;;;;;;;2.47;1.50;;;;;;;-149.78;100.00;50389.31;4825459;29;20125;-69
2022/03/12 06:42:17;;;;;;;5.10;2.80;;;;;;;-149.78;100.00;50371.69;4825267;29;20138;-68
2022/03/12 06:44:43;;;;;;;3.63;1.80;;;;;;;-149.78;100.00;50373.66;4824175;29;20050;-68
2022/03/12 06:47:10;;;;;;;3.05;1.40;;;;;;;-149.78;100.00;50326.72;4824489;29;20066;-68
2022/03/12 06:49:37;;;;;;;3.38;1.60;;;;;;;-149.78;100.00;50424.50;4823012;29;20038;-68
2022/03/12 06:52:03;;;;;;;2.28;1.50;;;;;;;-149.78;100.00;50391.25;4824256;29;20035;-68
2022/03/12 06:54:29;;;;;;;4.00;1.60;;;;;;;-149.78;100.00;50391.25;4824228;29;20034;-69
2022/03/12 06:56:55;;;;;;;4.40;1.70;;;;;;;-149.78;100.00;50381.47;4797896;29;20030;-69
2022/03/12 06:59:21;;;;;;;4.55;1.88;;;;;;;-149.78;100.00;50389.31;4807753;29;20038;-68
2022/03/12 07:01:47;;;;;;;4.30;2.10;;;;;;;-149.78;100.00;50369.75;4823948;29;20440;-69
2022/03/12 07:04:13;;;;;;;3.58;1.95;;;;;;;-149.78;100.00;50377.56;4823792;29;20042;-69
2022/03/12 07:06:38;;;;;;;3.00;2.00;;;;;;;-149.78;100.00;50408.84;4821205;29;20042;-69
2022/03/12 07:09:04;;;;;;;2.88;1.63;;;;;;;-149.78;100.00;50350.19;4823748;29;20050;-70
2022/03/12 07:11:31;;;;;;;5.15;1.92;;;;;;;-149.78;100.00;50387.34;4806141;29;20031;-70
2022/03/12 07:13:59;;;;;;;5.38;1.83;;;;;;;-149.78;100.00;50389.31;4823245;29;20042;-69
2022/03/12 07:16:25;;;;;;;3.83;1.63;;;;;;;-149.78;100.00;50408.84;4792404;29;20406;-69
2022/03/12 07:18:51;;;;;;;3.85;1.60;;;;;;;-149.78;100.00;50369.75;4822539;29;20026;-71
2022/03/12 07:21:16;;;;;;;6.10;2.30;;;;;;;-149.78;100.00;50363.88;4823494;29;20034;-70
2022/03/12 07:23:42;;;;;;;5.35;2.63;;;;;;;-149.78;100.00;50348.22;4815345;29;20052;-69
2022/03/12 07:26:08;;;;;;;4.57;2.55;;;;;;;-149.78;100.00;50381.47;4821983;29;20030;-69
2022/03/12 07:28:34;;;;;;;6.88;2.95;;;;;;;-149.78;100.00;50403.00;4791511;29;20133;-69
2022/03/12 07:31:00;;;;;;;4.57;2.55;;;;;;;-149.78;100.00;50401.03;4819478;29;20527;-69
2022/03/12 07:33:28;;;;;;;3.85;2.60;;;;;;;-149.78;100.00;50391.25;4802527;29;20099;-70
2022/03/12 07:35:54;;;;;;;8.05;3.00;;;;;;;-149.78;100.00;50385.38;4817721;29;20144;-70
2022/03/12 07:38:20;;;;;;;5.00;2.40;;;;;;;-149.78;100.00;50369.75;4819887;29;20042;-69
2022/03/12 07:40:45;;;;;;;3.42;2.25;;;;;;;-149.78;100.00;50385.38;4808399;29;20042;-70
2022/03/12 07:43:11;;;;;;;4.75;2.38;;;;;;;-149.78;100.00;50377.56;4816909;29;20094;-69
2022/03/12 07:45:37;;;;;;;3.85;2.05;;;;;;;-149.78;100.00;50389.31;4810402;29;20483;-69
2022/03/12 07:48:05;;;;;;;3.28;2.08;;;;;;;-149.78;100.00;50385.38;4813143;29;20039;-69
2022/03/12 07:50:31;;;;;;;3.80;2.17;;;;;;;-149.78;100.00;50369.75;4807112;29;20049;-69
2022/03/12 07:52:57;;;;;;;2.92;2.00;;;;;;;-149.78;100.00;50373.66;4805158;29;20038;-69
2022/03/12 07:55:23;;;;;;;4.47;2.03;;;;;;;-149.78;100.00;50385.38;4821827;29;20074;-70
2022/03/12 07:57:49;;;;;;;5.88;1.58;;;;;;;-149.78;100.00;50416.69;4805623;29;20072;-68
2022/03/12 08:00:16;;;;;;;1.88;1.38;;;;;;;-149.78;100.00;50369.75;4822441;29;20046;-68
2022/03/12 08:02:47;;;;;;;2.78;1.55;;;;;;;-149.78;100.00;50369.75;4802333;29;20514;-69
2022/03/12 08:05:16;;;;;;;4.43;1.50;;;;;;;-149.78;100.00;50338.44;4804389;29;20086;-71
2022/03/12 08:07:42;;;;;;;1.33;0.98;;;;;;;-149.78;100.00;50397.13;4819228;29;20046;-71
2022/03/12 08:10:08;;;;;;;1.65;0.80;;;;;;;-149.78;100.00;50361.91;4804911;29;20046;-68
2022/03/12 08:12:34;;;;;;;2.22;0.90;;;;;;;-149.78;100.00;50346.28;4814650;29;20495;-68
2022/03/12 08:15:05;;;;;;;3.53;0.93;;;;;;;-149.78;100.00;50365.84;4789506;29;20034;-68
2022/03/12 08:17:31;;;;;;;1.23;0.80;;;;;;;-149.78;100.00;50381.47;4821092;29;20360;-68
2022/03/12 08:19:57;;;;;;;4.00;1.00;;;;;;;-149.78;100.00;50377.56;4805353;29;20042;-68
2022/03/12 08:22:23;;;;;;;2.67;1.00;;;;;;;-149.78;100.00;50346.28;4822032;29;20035;-68
2022/03/12 08:24:49;;;;;;;2.75;0.80;;;;;;;-149.78;100.00;50326.72;4819927;29;20030;-68
2022/03/12 08:27:15;;;;;;;2.00;1.00;;;;;;;-149.78;100.00;50279.78;4821847;29;20030;-69
2022/03/12 08:29:43;;;;;;;5.03;1.33;;;;;;;-149.78;100.00;50268.03;4817101;29;20499;-69
2022/03/12 08:32:11;;;;;;;4.95;1.70;;;;;;;-149.78;100.00;50215.25;4820425;29;20129;-70
2022/03/12 08:34:36;;;;;;;4.40;1.83;;;;;;;-149.78;100.00;50268.03;4810126;29;20583;-69
2022/03/12 08:37:03;;;;;;;3.42;2.10;;;;;;;-149.78;100.00;50258.28;4816784;29;20133;-69
2022/03/12 08:39:29;;;;;;;5.93;2.00;;;;;;;-149.78;100.00;50197.66;4819998;29;20420;-69
2022/03/12 08:41:56;;;;;;;3.85;1.63;;;;;;;-149.78;100.00;50236.75;4818926;29;20387;-69
2022/03/12 08:44:22;;;;;;;4.07;1.85;;;;;;;-149.78;100.00;50158.53;4811690;29;20049;-69
2022/03/12 08:46:47;;;;;;;2.47;1.60;;;;;;;-149.78;100.00;50185.91;4819883;29;20034;-69
2022/03/12 08:49:16;;;;;;;3.05;1.90;;;;;;;-149.78;100.00;50148.75;4821835;29;20456;-68
2022/03/12 08:51:42;;;;;;;1.35;1.17;;;;;;;-149.78;100.00;50217.19;4803751;29;20048;-68
2022/03/12 08:54:09;;;;;;;2.70;1.20;;;;;;;-149.78;100.00;50225.03;4805999;29;20038;-68
2022/03/12 08:56:36;;;;;;;1.90;1.42;;;;;;;-149.78;100.00;50201.56;4817036;29;20121;-68
2022/03/12 08:59:04;;;;;;;4.47;1.60;;;;;;;-149.78;100.00;50271.97;4821730;29;20046;-68
2022/03/12 09:01:31;;;;;;;2.35;1.80;;;;;;;-149.78;100.00;50264.13;4805846;29;20380;-68
2022/03/12 09:03:57;;;;;;;5.40;2.60;;;;;;;-149.78;100.00;50295.44;4823247;29;20122;-68
2022/03/12 09:06:26;;;;;;;5.13;1.80;;;;;;;-149.78;100.00;50311.06;4823228;29;20424;-68
2022/03/12 09:08:53;;;;;;;3.05;1.60;;;;;;;-149.78;100.00;50314.97;4821966;29;20042;-67
2022/03/12 09:11:20;;;;;;;4.60;1.90;;;;;;;-149.78;100.00;50268.03;4806905;29;20030;-67
2022/03/12 09:13:46;;;;;;;2.88;1.60;;;;;;;-149.78;100.00;50215.25;4821971;29;20069;-67
2022/03/12 09:16:14;;;;;;;5.00;1.60;;;;;;;-149.78;100.00;50215.25;4823126;29;20042;-68
2022/03/12 09:18:44;;;;;;;4.85;1.20;;;;;;;-149.78;100.00;50131.16;4822597;29;20042;-68
2022/03/12 09:21:10;;;;;;;2.42;1.45;;;;;;;-149.78;94.47;50152.66;4806763;29;20066;-68
2022/03/12 09:23:36;;;;;;;2.88;1.30;;;;;;;-149.78;84.40;50180.03;4803953;29;20452;-68
2022/03/12 09:26:02;;;;;;;2.28;1.30;;;;;;;-149.78;78.74;50115.50;4822229;29;20038;-68
2022/03/12 09:28:29;;;;;;;3.08;1.10;;;;;;;-149.78;72.98;50111.59;4822453;29;20033;-68
2022/03/12 09:30:55;;;;;;;3.17;1.25;;;;;;;-149.78;76.03;50158.53;4822991;29;20394;-67
2022/03/12 09:33:22;;;;;;;4.82;1.20;;;;;;;-149.78;73.55;50154.63;4822765;29;20061;-68
2022/03/12 09:35:50;;;;;;;3.40;1.90;;;;;;;-149.78;79.53;50182.00;4822899;29;20083;-67
2022/03/12 09:38:16;;;;;;;2.33;1.33;;;;;;;-149.78;94.10;50209.38;4822827;29;20038;-68
2022/03/12 09:40:44;;;;;;;3.47;1.50;;;;;;;-149.78;100.00;50221.13;4822795;29;20538;-69
2022/03/12 09:43:10;;;;;;;4.28;1.15;;;;;;;-149.78;85.14;50215.25;4802916;29;20043;-69
2022/03/12 09:45:36;;;;;;;3.97;1.30;;;;;;;-149.78;86.11;50209.38;4788535;29;20043;-69
2022/03/12 09:48:04;;;;;;;4.50;1.48;;;;;;;-149.78;98.14;50256.31;4788305;29;20034;-69
2022/03/12 09:50:30;;;;;;;6.13;1.33;;;;;;;-149.78;100.00;50295.44;4804625;29;20034;-68
2022/03/12 09:52:56;;;;;;;5.35;1.35;;;;;;;-149.78;100.00;50283.69;4804643;29;20041;-68
2022/03/12 09:55:23;;;;;;;8.50;1.65;;;;;;;-149.78;100.00;50303.25;4804259;29;20051;-68
2022/03/12 09:57:49;;;;;;;4.25;1.23;;;;;;;-149.78;100.00;50313.03;4808040;29;20054;-68
2022/03/12 10:00:16;;;;;;;5.53;1.60;;;;;;;-149.78;100.00;50279.78;4823576;29;20098;-68
2022/03/12 10:02:43;;;;;;;4.93;1.52;;;;;;;-149.78;100.00;50326.72;4810586;29;20506;-68
2022/03/12 10:05:13;;;;;;;5.90;1.38;;;;;;;-149.78;100.00;50291.50;4807028;29;20046;-69
2022/03/12 10:07:43;;;;;;;5.93;1.20;;;;;;;-149.78;100.00;50336.50;4796901;29;20059;-68
2022/03/12 10:10:15;;;;;;;4.93;1.40;;;;;;;-149.78;100.00;50326.72;4809573;29;20079;-68
2022/03/12 10:12:46;;;;;;;5.72;1.33;;;;;;;-149.78;100.00;50307.16;4821417;29;20035;-68
2022/03/12 10:15:14;;;;;;;6.13;1.70;;;;;;;-149.78;100.00;50299.34;4820515;29;20057;-68
2022/03/12 10:17:41;;;;;;;3.95;1.77;;;;;;;-149.78;100.00;50287.59;4810089;29;20038;-69
2022/03/12 10:20:09;;;;;;;4.80;1.60;;;;;;;-149.78;100.00;50283.69;4809828;29;20406;-68
2022/03/12 10:22:35;;;;;;;5.32;1.83;;;;;;;-149.78;100.00;50299.34;4825546;29;20038;-67
2022/03/12 10:25:03;;;;;;;5.53;1.42;;;;;;;-149.78;100.00;50289.56;4825663;29;20050;-68
2022/03/12 10:27:29;;;;;;;3.65;0.90;;;;;;;-149.78;100.00;50262.19;4825292;29;20122;-67
2022/03/12 10:29:55;;;;;;;5.75;1.08;;;;;;;-149.78;100.00;50324.75;4825470;29;20507;-67
2022/03/12 10:32:30;;;;;;;5.25;1.00;;;;;;;-149.78;100.00;50334.53;4825153;29;20069;-67
2022/03/12 10:34:59;;;;;;;5.65;1.30;;;;;;;-149.78;100.00;50303.25;4825546;29;20054;-67
2022/03/12 10:37:31;;;;;;;9.70;1.10;;;;;;;-149.78;100.00;50330.63;4825746;29;20038;-67
2022/03/12 10:40:10;;;;;;;3.80;1.10;;;;;;;-149.78;100.00;50303.25;4825462;29;20034;-67
2022/03/12 10:42:49;;;;;;;2.92;1.20;;;;;;;-149.78;100.00;50328.69;4825078;29;20166;-68
2022/03/12 10:45:18;;;;;;;4.35;1.10;;;;;;;-149.78;100.00;50313.03;4823902;29;20082;-68
2022/03/12 10:47:47;;;;;;;7.93;1.30;;;;;;;-149.78;100.00;50311.06;4822807;29;20045;-68
2022/03/12 10:50:22;;;;;;;8.45;1.42;;;;;;;-149.78;100.00;50334.53;4821856;29;20030;-69
2022/03/12 10:52:50;;;;;;;6.03;1.55;;;;;;;-149.78;100.00;50324.75;4807074;29;20034;-68
2022/03/12 10:55:19;;;;;;;5.22;1.02;;;;;;;-149.78;100.00;50359.97;4807002;29;20038;-67
2022/03/12 10:57:56;;;;;;;6.85;1.45;;;;;;;-149.78;100.00;50311.06;4814883;29;20129;-69
2022/03/12 11:00:23;;;;;;;2.63;0.82;;;;;;;-149.78;100.00;50334.53;4808579;29;20034;-68
2022/03/12 11:03:00;;;;;;;5.72;1.40;;;;;;;-149.78;100.00;50326.72;4820339;29;20046;-68
2022/03/12 11:05:28;;;;;;;5.13;1.20;;;;;;;-149.78;100.00;50314.97;4802236;29;20042;-68
2022/03/12 11:08:19;;;;;;;9.20;1.25;;;;;;;-149.78;100.00;50330.63;4819623;29;20046;-68
2022/03/12 11:10:52;;;;;;;8.23;1.08;;;;;;;-149.78;100.00;50338.44;4816497;29;20404;-70